Tiempo atmosférico en la estación meteorológica de Murcia, Murcia (61 m.)



Fecha
DESCASC
Temp. máxima en grados centígrados (hora)
DESCASC
Temp. mínima en grados centígrados (hora)
DESCASC
Temp. media en grados centígrados
DESCASC
Racha de viento máxima en m/sg (hora)
DESCASC
Velocidad máxima media en intervalos de 10 minutos(hora)
DESCASC
Precipitaciones diarias en mm
DESCASC
Precipitaciones de 00:00 a 06:00 en mm
DESCASC
Precipitaciones de 06:00 a 12:00 en mm
DESCASC
Precipitaciones de 12:00 a 18:00 en mm
DESCASC
Precipitaciones de 18:00 a 24:00 en mm
DESCASC
08-12-2019 20.1 (15:40) 6.6 (05:40) 13.4 5.56 (23:30) 2.5 (16:10) 0 0 0 0 0
07-12-2019 18.1 (15:20) 7.8 (08:30) 13 4.72 (03:10) 3.06 (03:00) 0 0 0 0 0
06-12-2019 17.3 (14:50) 10.8 (23:40) 14 5.83 (17:00) 3.89 (17:00) 0 0 0 0 0
05-12-2019 17.6 (14:20) 9.8 (00:00) 13.7 6.39 (17:20) 3.61 (17:40) 0 0 0 0 0
04-12-2019 14 (15:50) 10.6 (00:00) 12.3 11.39 (06:00) 6.94 (06:00) 1 0.6 0.2 0.2 0
03-12-2019 13.8 (11:00) 10.7 (00:00) 12.3 13.89 (11:50) 8.89 (11:50) 28.2 21.4 0 6.6 0.2
02-12-2019 14.9 (14:20) 12.1 (00:00) 13.5 7.5 (06:20) 4.17 (06:20) 7.8 0 0.2 3 4.6
01-12-2019 21.5 (16:20) 8.4 (00:00) 14.9 7.22 (12:50) 4.44 (12:30) 0 0 0 0 0
30-11-2019 23.4 (15:20) 11.3 (00:00) 17.3 4.44 (14:10) 3.06 (07:40) 0 0 0 0 0
29-11-2019 22.9 (15:10) 7.8 (00:00) 15.3 8.33 (14:20) 5.28 (14:20) 0 0 0 0 0
28-11-2019 22.5 (15:50) 8.6 (00:00) 15.6 5.83 (11:50) 3.33 (11:40) 0 0 0 0 0
27-11-2019 23.5 (14:00) 9.2 (00:00) 16.3 9.72 (17:00) 5.83 (17:00) 0 0 0 0 0
26-11-2019 23.2 (15:20) 10.1 (00:00) 16.7 5.28 (18:30) 3.06 (18:30) 0 0 0 0 0
25-11-2019 22.4 (14:10) 5.8 (00:00) 14.1 8.33 (17:40) 4.44 (17:40) 0 0 0 0 0
24-11-2019 17.1 (14:00) 6.8 (00:00) 12 11.94 (13:20) 7.78 (13:20) 0 0 0 0 0
23-11-2019 18.2 (14:50) 10.6 (00:00) 14.4 15.28 (03:20) 10 (12:50) 0 0 0 0 0
22-11-2019 15.3 (16:40) 9 (00:00) 12.2 7.5 (16:40) 3.89 (16:40) 4.6 0 1 0.8 2.8
21-11-2019 16.4 (15:50) 7 (00:00) 11.7 4.17 (08:20) 3.06 (08:20) 0.4 0 0 0 0.4
20-11-2019 18.2 (15:30) 5.2 (00:00) 11.7 4.72 (00:30) 3.33 (00:30) 0.4 0 0 0 0.4
19-11-2019 17.5 (15:20) 5.8 (00:00) 11.7 6.11 (02:50) 3.33 (02:40) 0 0 0 0 0
18-11-2019 16.4 (15:20) 7.9 (00:00) 12.1 13.33 (11:40) 8.06 (11:30) 5.4 5.4 0 0 0
17-11-2019 19.2 (16:10) 3.1 (00:00) 11.2 5.28 (14:10) 3.06 (13:40) 0 0 0 0 0
16-11-2019 16.3 (15:00) 3.9 (00:00) 10.1 11.39 (12:00) 7.22 (10:40) 0 0 0 0 0
15-11-2019 15.9 (15:10) 5.3 (00:00) 10.6 9.72 (13:30) 5.83 (13:30) 0 0 0 0 0
14-11-2019 17.7 (13:40) 9.7 (00:00) 13.7 15.83 (14:20) 10.28 (14:20) 1.8 0 0 1.8 0
13-11-2019 24.6 (14:10) 10.7 (00:00) 17.7 15.83 (13:10) 9.44 (13:30) 0 0 0 0 0
12-11-2019 19.6 (14:50) 11.3 (00:00) 15.5 11.39 (11:50) 7.22 (10:20) 0.4 0 0.4 0 0

Gráficas

Temp. máximas Temp. mínimas Temp. medias Precipitaciones Rachas de viento máximas Velocidades máximas media en intervalos de 10 minutos

Datos horarios

Fecha y hora oficial Temperatura (ºC) Velocidad del viento (km/h) Dirección del viento Racha (km/h) Dirección de racha Precipitación (mm) Presión (hPa) Tendencia (hPa) Humedad (%)
2019-12-11 23:00:00 12.7 13 Noroeste 23 Noroeste 0 1017.2 1.6 53
2019-12-11 22:00:00 12.8 5 Sudoeste 37 Noroeste 0 1016.7 2.4 54
2019-12-11 21:00:00 13.3 25 Noroeste 48 Noroeste 0 1015.5 2.4 55
2019-12-11 20:00:00 14.1 22 Noroeste 37 Noroeste 0 1015.6 3.9 51
2019-12-11 19:00:00 15.4 9 Noroeste 48 Noroeste 0 1014.3 3.3 51
2019-12-11 18:00:00 16.5 21 Noroeste 36 Norte 0 1013.1 1.8 51
2019-12-11 17:00:00 18.5 17 Oeste 34 Oeste 0 1011.7 0.2 43
2019-12-11 16:00:00 19.9 13 Oeste 42 Noroeste 0 1011 -1.3 37
2019-12-11 15:00:00 20 3 Nordeste 12 Sudoeste 0 1011.3 -2.3 40
2019-12-11 14:00:00 20.1 5 Sudoeste 9 Sudoeste 0 1011.5 -3 31
2019-12-11 13:00:00 18.4 5 Sudoeste 10 Sudoeste 0 1012.3 -2.4 34
2019-12-11 12:00:00 15.6 4 Sudoeste 10 Sur 0 1013.6 -0.8 39
2019-12-11 11:00:00 12.2 6 Sudoeste 10 Sudoeste 0 1014.5 0 56
2019-12-11 10:00:00 9.8 6 Sudoeste 10 Sudoeste 0 1014.7 0.2 61
2019-12-11 09:00:00 8.4 5 Oeste 10 Oeste 0 1014.4 -0.1 57
2019-12-11 08:00:00 5.5 4 Oeste 8 Oeste 0 1014.5 -0.4 71
2019-12-11 07:00:00 4.6 5 Sur 12 Sudoeste 0 1014.5 -0.7 76
2019-12-11 06:00:00 7.7 4 Sudoeste 12 Sudoeste 0 1014.5 -0.7 61
2019-12-11 05:00:00 4.9 7 Sudoeste 11 Sudoeste 0 1014.9 -0.7 77
2019-12-11 04:00:00 5.2 3 Sudoeste 10 Sur 0 1015.2 -1 78
2019-12-11 03:00:00 7.4 5 Sudoeste 10 Sudoeste 0 1015.2 -1.3 71
2019-12-11 02:00:00 6.7 5 Sudoeste 10 Sudoeste 0 1015.6 -0.8 79
2019-12-11 01:00:00 7 5 Sudoeste 10 Sudoeste 0 1016.2 -0.2 78
2019-12-11 00:00:00 8.4 9 Sudoeste 14 Sudoeste 0 1016.5 0 74
2019-12-10 23:00:00 8.6 5 Sudoeste 9 Oeste 0 1016.4 -0.1 76
2019-12-10 22:00:00 9.4 5 Sudoeste 9 Sudoeste 0 1016.4 0 77
2019-12-10 21:00:00 10.1 4 Noroeste 10 Norte 0 1016.5 -0.1 77
2019-12-10 20:00:00 11.3 6 Oeste 10 Sudoeste 0 1016.5 0.3 73
2019-12-10 19:00:00 12.2 3 Norte 13 Nordeste 0 1016.4 0 66
2019-12-10 18:00:00 14.9 3 Nordeste 19 Nordeste 0 1016.6 -0.2 59
2019-12-10 17:00:00 20.8 5 Sudoeste 11 Oeste 0 1016.2 -1.3 32
2019-12-10 16:00:00 21 7 Oeste 14 Oeste 0 1016.4 -1.9 27
2019-12-10 15:00:00 20.4 10 Oeste 23 Oeste 0 1016.8 -2.6 29
2019-12-10 14:00:00 19.7 9 Oeste 32 Noroeste 0 1017.5 -2 30
2019-12-10 13:00:00 18.3 15 Noroeste 32 Noroeste 0 1018.3 -0.6 32
2019-12-10 12:00:00 17.2 12 Noroeste 30 Oeste 0 1019.4 0.3 34
2019-12-10 11:00:00 15.5 15 Oeste 27 Oeste 0 1019.5 0.6 39
2019-12-10 10:00:00 14.2 12 Sudoeste 28 Oeste 0 1018.9 0.2 39
2019-12-10 09:00:00 12.2 8 Sudoeste 20 Oeste 0 1019.1 0.1 45
2019-12-10 08:00:00 11.5 16 Oeste 26 Oeste 0 1018.9 -0.2 48
2019-12-10 07:00:00 10.8 6 Sudoeste 13 Oeste 0 1018.7 -0.7 50
2019-12-10 06:00:00 11.1 5 Sudoeste 24 Oeste 0 1019 -0.9 55
2019-12-10 05:00:00 13.6 16 Oeste 32 Oeste 0 1019.1 -1.1 42
2019-12-10 04:00:00 13.5 11 Oeste 21 Noroeste 0 1019.4 -0.7 45
2019-12-10 03:00:00 14.4 9 Oeste 24 Noroeste 0 1019.9 -0.1 45
2019-12-10 02:00:00 14.3 5 Sur 30 Oeste 0 1020.2 0.1 49
2019-12-10 01:00:00 15.2 22 Oeste 35 Noroeste 0 1020.1 0 48
2019-12-10 00:00:00 15.2 12 Oeste 29 Oeste 0 1020 0.3 51
2019-12-09 23:00:00 15.1 9 Oeste 19 Oeste 0 1020.1 1 46
2019-12-09 22:00:00 15.6 10 Noroeste 23 Noroeste 0 1020.1 2.2 43
2019-12-09 21:00:00 15.8 6 Sudeste 24 Norte 0 1019.7 2.1 46
2019-12-09 20:00:00 15.3 11 Noroeste 26 Noroeste 0 1019.1 1.8 45
2019-12-09 19:00:00 16.2 5 Noroeste 12 Noroeste 0 1017.9 0.8 46
2019-12-09 18:00:00 16.8 4 Noroeste 9 Noroeste 0 1017.6 0.3 49
2019-12-09 17:00:00 19.4 6 Noroeste 12 Norte 0 1017.3 -0.6 46
2019-12-09 16:00:00 20.2 8 Noroeste 17 Noroeste 0 1017.1 -1.9 44
2019-12-09 15:00:00 20.1 10 Noroeste 19 Noroeste 0 1017.3 -2.7 40
2019-12-09 14:00:00 20.1 12 Noroeste 27 Noroeste 0 1017.9 -2.1 42
2019-12-09 13:00:00 18.9 17 Noroeste 28 Noroeste 0 1019 -0.4 44
2019-12-09 12:00:00 18 18 Oeste 31 Noroeste 0 1020 1.3 50
2019-12-09 11:00:00 16.9 21 Noroeste 36 Oeste 0 1020 1.5 56
2019-12-09 10:00:00 14.7 13 Oeste 27 Noroeste 0 1019.4 1.6 67
2019-12-09 09:00:00 14.4 16 Noroeste 26 Noroeste 0 1018.7 1.2 69
2019-12-09 08:00:00 14.7 16 Oeste 48 Noroeste 0 1018.5 2.1 67
2019-12-09 07:00:00 14.1 19 Oeste 29 Oeste 0 1017.8 1.3 71
2019-12-09 06:00:00 13 5 Este 14 Oeste 0 1017.5 1 74
2019-12-09 05:00:00 13 5 Sudoeste 18 Oeste 0 1016.4 -0.2 74
2019-12-09 04:00:00 15.8 12 Sudoeste 21 Sudoeste 0 1016.5 -0.1 62
2019-12-09 03:00:00 14.5 6 Sudoeste 15 Noroeste 0 1016.5 -0.3 68
2019-12-09 02:00:00 15.8 9 Noroeste 33 Noroeste 0 1016.6 0.3 62
2019-12-09 01:00:00 14.9 17 Oeste 28 Noroeste 0 1016.6 0.5 67
2019-12-09 00:00:00 14.4 7 Sudoeste 20 Sudoeste 0 1016.8 0.5 67
2019-12-08 23:00:00 12 5 Oeste 12 Sur 0 1016.3 0.3 80
2019-12-08 22:00:00 12.5 4 Sudeste 14 Oeste 0 1016.1 0.7 78
2019-12-08 21:00:00 13.5 4 Oeste 12 Oeste 0 1016.3 1.4 73
2019-12-08 20:00:00 13.9 6 Sudoeste 18 Sudoeste 0 1016 1.2 71
2019-12-08 19:00:00 15.4 8 Sudoeste 14 Sudoeste 0 1015.4 0.6 70
2019-12-08 18:00:00 16.7 5 Sudoeste 9 Sur 0 1014.9 -0.1 59
2019-12-08 17:00:00 19.8 6 Oeste 17 Oeste 0 1014.8 -1 43
2019-12-08 16:00:00 20.1 8 Oeste 14 Noroeste 0 1014.8 -1.9 42
2019-12-08 15:00:00 19.6 8 Oeste 14 Oeste 0 1015 -2.7 46
2019-12-08 14:00:00 18.5 8 Oeste 15 Oeste 0 1015.8 -2.3 48
2019-12-08 13:00:00 17.1 8 Noroeste 17 Noroeste 0 1016.7 -1.1 55
2019-12-08 12:00:00 15.9 6 Sudoeste 13 Sudoeste 0 1017.7 0.2 59
2019-12-08 11:00:00 13.6 6 Sudoeste 12 Sudoeste 0 1018.1 1 72
2019-12-08 10:00:00 11.1 8 Sudoeste 12 Sudoeste 0 1017.8 1 77
2019-12-08 09:00:00 8.3 7 Sudoeste 10 Sudoeste 0 1017.5 0.8 88
2019-12-08 08:00:00 7.7 4 Sudoeste 10 Oeste 0 1017.1 0.2 92
2019-12-08 07:00:00 7.2 5 Oeste 8 Sudoeste 0 1016.8 -0.2 94
2019-12-08 06:00:00 7.3 7 Oeste 9 Oeste 0 1016.7 -0.6 94
2019-12-08 05:00:00 7.4 6 Noroeste 8 Noroeste 0 1016.9 -0.4 94
2019-12-08 04:00:00 7.7 5 Oeste 8 Oeste 0 1017 -0.5 93
2019-12-08 03:00:00 8.4 7 Sudoeste 10 Oeste 0 1017.3 -0.5 93
2019-12-08 02:00:00 8.1 3 Sur 5 Sur 0 1017.3 -0.4 95
2019-12-08 01:00:00 8.2 2 Sudoeste 8 Sudoeste 0 1017.5 0 93
2019-12-08 00:00:00 9.8 5 Sur 9 Noroeste 0 1017.8 0.7 91
2019-12-07 23:00:00 10.2 7 Oeste 10 Oeste 0 1017.7 0.9 93
2019-12-07 22:00:00 9.8 3 Sur 5 Sur 0 1017.5 1.5 93
2019-12-07 21:00:00 10.5 2 Sur 5 Nordeste 0 1017.1 1.6 90
2019-12-07 20:00:00 11.1 5 Norte 10 Norte 0 1016.8 1.6 88
2019-12-07 19:00:00 11.9 3 Norte 4 Noroeste 0 1016 1.1 82
2019-12-07 18:00:00 13.7 2 Noroeste 5 Oeste 0 1015.5 0.7 77
2019-12-07 17:00:00 16.3 4 Sur 8 Sur 0 1015.2 -0.3 65
2019-12-07 16:00:00 17 7 Sur 10 Sur 0 1014.9 -1.5 63
2019-12-07 15:00:00 17.6 3 Este 9 Oeste 0 1014.8 -2.2 61
2019-12-07 14:00:00 15.2 6 Noroeste 9 Noroeste 0 1015.5 -1.8 72
2019-12-07 13:00:00 14 4 Oeste 10 Noroeste 0 1016.4 -0.5 75
2019-12-07 12:00:00 13.2 8 Noroeste 15 Oeste 0 1017 0.5 77
2019-12-07 11:00:00 11.4 8 Noroeste 12 Noroeste 0 1017.3 1.2 86
2019-12-07 10:00:00 10 5 Noroeste 8 Noroeste 0 1016.9 1.1 92
2019-12-07 09:00:00 8.5 3 Noroeste 7 Noroeste 0 1016.5 0.9 96
2019-12-07 08:00:00 8.1 5 Noroeste 8 Noroeste 0 1016.1 0.5 95
2019-12-07 07:00:00 8.3 5 Oeste 8 Noroeste 0 1015.8 -0.1 96
2019-12-07 06:00:00 8.6 3 Oeste 10 Sudoeste 0 1015.6 -0.3 93
2019-12-07 05:00:00 9.3 6 Sudoeste 8 Sudoeste 0 1015.6 -0.2 93
2019-12-07 04:00:00 9.8 3 Nordeste 17 Noroeste 0 1015.9 0 90
2019-12-07 03:00:00 10.5 11 Noroeste 16 Noroeste 0 1015.9 -0.2 91
2019-12-07 02:00:00 10.3 5 Noroeste 8 Noroeste 0 1015.8 -0.3 94
2019-12-07 01:00:00 11 5 Oeste 6 Oeste 0 1015.9 -0.2 94
2019-12-07 00:00:00 11.1 4 Sudoeste 8 Sudeste 0 1016.1 0.1 94
2019-12-06 23:00:00 11.7 2 Sudoeste 8 Noroeste 0 1016.1 0.5 89
2019-12-06 22:00:00 13.1 2 Oeste 7 Oeste 0 1016.1 1.2 88
2019-12-06 21:00:00 13 5 Sudoeste 10 Sur 0 1016 1.8 88
2019-12-06 20:00:00 12.2 5 Oeste 8 Oeste 0 1015.6 1.6 90
2019-12-06 19:00:00 12.8 2 Norte 8 Nordeste 0 1014.9 1 86
2019-12-06 18:00:00 13.9 8 Nordeste 19 Nordeste 0 1014.2 0.1 82
2019-12-06 17:00:00 15.8 14 Nordeste 21 Nordeste 0 1014 -0.8 69
2019-12-06 16:00:00 17.1 9 Este 17 Este 0 1013.9 -1.5 64
2019-12-06 15:00:00 17.2 7 Nordeste 14 Norte 0 1014.1 -2 61
2019-12-06 14:00:00 15.9 7 Noroeste 10 Noroeste 0 1014.8 -1.6 70
2019-12-06 13:00:00 14.9 5 Oeste 8 Oeste 0 1015.4 -0.7 75
2019-12-06 12:00:00 14.3 4 Oeste 9 Oeste 0 1016.1 0.9 76
2019-12-06 11:00:00 13.5 5 Oeste 9 Oeste 0 1016.4 1.8 81
2019-12-06 10:00:00 12.2 4 Oeste 6 Oeste 0 1016.1 1.8 86
2019-12-06 09:00:00 11.6 3 Sudoeste 13 Noroeste 0 1015.2 1.5 89
2019-12-06 08:00:00 11.6 8 Noroeste 11 Norte 0 1014.6 1 88
2019-12-06 07:00:00 12 5 Oeste 8 Noroeste 0 1014.3 0.6 89
2019-12-06 06:00:00 12.6 4 Noroeste 10 Norte 0 1013.7 0.3 84
2019-12-06 05:00:00 12.7 0 Calma 6 Nordeste 0 1013.6 0.2 90
2019-12-06 04:00:00 13 5 Norte 10 Norte 0 1013.7 0.3 89
2019-12-06 03:00:00 12.8 6 Norte 10 Noroeste 0 1013.4 -0.4 90
2019-12-06 02:00:00 13 0 Calma 8 Noroeste 0 1013.4 -0.3 89
2019-12-06 01:00:00 13.1 5 Noroeste 8 Noroeste 0 1013.4 0 90
2019-12-06 00:00:00 12.8 5 Noroeste 8 Norte 0 1013.8 1 91
2019-12-05 23:00:00 13.1 3 Noroeste 6 Noroeste 0 1013.7 1.2 90
2019-12-05 22:00:00 13.1 3 Nordeste 7 Nordeste 0 1013.4 1.7 89
2019-12-05 21:00:00 13.3 6 Nordeste 9 Nordeste 0 1012.8 1.9 89
2019-12-05 20:00:00 13.7 7 Nordeste 13 Nordeste 0 1012.5 2.7 88
2019-12-05 19:00:00 14 6 Este 19 Este 0 1011.7 2.5 86
2019-12-05 18:00:00 14.6 11 Este 23 Este 0 1010.9 2 82
2019-12-05 17:00:00 15.8 12 Este 20 Este 0 1009.8 0.7 74
2019-12-05 16:00:00 16.1 9 Este 17 Este 0 1009.2 -0.3 66
2019-12-05 15:00:00 17.1 7 Nordeste 21 Este 0 1008.9 -0.9 64
2019-12-05 14:00:00 17.3 6 Nordeste 15 Nordeste 0 1009.1 -0.4 66
2019-12-05 13:00:00 16.3 9 Nordeste 15 Nordeste 0 1009.5 0.8 69
2019-12-05 12:00:00 15.7 7 Este 13 Este 0 1009.8 2.1 70
2019-12-05 11:00:00 14.5 3 Oeste 8 Norte 0 1009.5 2.6 68
2019-12-05 10:00:00 12.7 5 Noroeste 10 Noroeste 0 1008.7 2.9 77
2019-12-05 09:00:00 11.1 0 Calma 8 Oeste 0 1007.7 2.8 91
2019-12-05 08:00:00 10.2 2 Sudoeste 5 Noroeste 0 1006.9 2.5 93
2019-12-05 07:00:00 9.9 3 Noroeste 6 Noroeste 0 1005.8 1.6 92
2019-12-05 06:00:00 10.9 4 Sudoeste 21 Oeste 0 1004.9 1.2 88
2019-12-05 05:00:00 11.5 7 Oeste 12 Oeste 0 1004.4 1.4 84
2019-12-05 04:00:00 11 0 Calma 9 Oeste 0 1004.2 1.3 88
2019-12-05 03:00:00 11.4 5 Sudoeste 9 Sudoeste 0 1003.7 1.2 88
2019-12-05 02:00:00 11.2 5 Oeste 7 Oeste 0 1003 0.9 86
2019-12-05 01:00:00 11.3 4 Oeste 8 Sudoeste 0 1002.9 0.9 87
2019-12-05 00:00:00 11.5 3 Sur 12 Oeste 0 1002.5 1.1 84
2019-12-04 23:00:00 12.4 8 Oeste 12 Oeste 0 1002.1 1.3 79
2019-12-04 22:00:00 12 6 Sudoeste 10 Sudoeste 0 1002 1.8 81
2019-12-04 21:00:00 11.7 2 Noroeste 9 Oeste 0 1001.4 1.6 84
2019-12-04 20:00:00 12 5 Sudoeste 8 Sudoeste 0 1000.8 1.3 84
2019-12-04 19:00:00 12.6 4 Sudoeste 10 Oeste 0 1000.2 1.2 78
2019-12-04 18:00:00 13.1 7 Oeste 12 Oeste 0 999.8 1.2 73
2019-12-04 17:00:00 13.6 8 Oeste 22 Oeste 0 999.5 0.8 71
2019-12-04 16:00:00 14 9 Oeste 26 Oeste 0 999 0.3 71
2019-12-04 15:00:00 13.7 18 Noroeste 30 Noroeste 0 998.6 -0.6 73
2019-12-04 14:00:00 13.1 13 Oeste 29 Oeste 0 998.7 -0.3 76
2019-12-04 13:00:00 13 17 Oeste 31 Oeste 0.2 998.7 0.4 76
2019-12-04 12:00:00 12.7 18 Noroeste 36 Noroeste 0 999.2 1.6 78
2019-12-04 11:00:00 12.6 19 Noroeste 36 Noroeste 0.2 999 1.7 75
2019-12-04 10:00:00 13.4 17 Noroeste 33 Noroeste 0 998.3 0.9 69
2019-12-04 09:00:00 13 19 Noroeste 34 Noroeste 0 997.6 0.2 69
2019-12-04 08:00:00 12.7 18 Noroeste 35 Noroeste 0 997.3 -0.7 72
2019-12-04 07:00:00 12.2 19 Noroeste 34 Noroeste 0 997.4 -1.1 75
2019-12-04 06:00:00 12.3 25 Noroeste 41 Noroeste 0 997.4 -2.1 73
2019-12-04 05:00:00 12 21 Noroeste 36 Noroeste 0 998 -2.1 77
2019-12-04 04:00:00 11.3 19 Oeste 32 Noroeste 0.2 998.5 -2.9 83
2019-12-04 03:00:00 10.6 18 Oeste 34 Oeste 0.4 999.5 -3 86
2019-12-04 02:00:00 11.3 13 Noroeste 30 Noroeste 0 1000.1 -3.1 77
2019-12-04 01:00:00 11.2 19 Noroeste 30 Noroeste 0 1001.4 -2 77
2019-12-04 00:00:00 10.8 15 Noroeste 31 Noroeste 0 1002.5 -1.3 79
2019-12-03 23:00:00 10.8 15 Noroeste 32 Noroeste 0 1003.2 -0.6 80
2019-12-03 22:00:00 10.7 13 Noroeste 24 Noroeste 0.2 1003.4 -0.5 82
2019-12-03 21:00:00 10.9 11 Noroeste 22 Noroeste 0 1003.8 0.3 85
2019-12-03 20:00:00 11 13 Noroeste 20 Noroeste 0 1003.8 0.2 84
2019-12-03 19:00:00 11 10 Noroeste 18 Oeste 0 1003.9 0.4 91
2019-12-03 18:00:00 11.3 4 Oeste 8 Sudoeste 0 1003.5 -0.3 95
2019-12-03 17:00:00 10.9 6 Nordeste 21 Este 3 1003.6 -0.8 95
2019-12-03 16:00:00 11.8 5 Nordeste 18 Este 1.8 1003.5 -1.5 95
2019-12-03 15:00:00 11.9 7 Nordeste 19 Nordeste 1 1003.8 -1.8 93
2019-12-03 14:00:00 12 16 Nordeste 40 Este 0.8 1004.4 -1.8 92
2019-12-03 13:00:00 13.4 25 Este 48 Este 0 1005 -1 77
2019-12-03 12:00:00 13.8 26 Este 50 Este 0 1005.6 -0.2 70
2019-12-03 11:00:00 13.8 26 Nordeste 45 Este 0 1006.2 0.4 70
2019-12-03 10:00:00 13.4 14 Nordeste 28 Nordeste 0 1006 0.4 73
2019-12-03 09:00:00 13.2 19 Nordeste 32 Norte 0 1005.8 0.3 75
2019-12-03 08:00:00 12.8 14 Nordeste 27 Nordeste 0 1005.8 -0.1 82
2019-12-03 07:00:00 12.3 10 Norte 17 Nordeste 0 1005.6 -0.5 85
2019-12-03 06:00:00 11.9 6 Noroeste 11 Norte 0 1005.5 -1.5 89
2019-12-03 05:00:00 11.9 8 Norte 18 Norte 0 1005.9 -1.1 89
2019-12-03 04:00:00 11.9 10 Oeste 23 Noroeste 2.8 1006.1 -1.3 94
2019-12-03 03:00:00 12.1 8 Norte 29 Nordeste 6.6 1007 -0.6 94
2019-12-03 02:00:00 12.4 14 Nordeste 27 Nordeste 7 1007 -0.6 95
2019-12-03 01:00:00 12.5 10 Este 18 Este 5 1007.4 0 96
2019-12-03 00:00:00 12.8 9 Nordeste 21 Nordeste 1.4 1007.6 0.3 96
2019-12-02 23:00:00 13 6 Este 15 Nordeste 0.2 1007.6 0.8 95
2019-12-02 22:00:00 13 4 Nordeste 12 Nordeste 0.4 1007.4 1.3 96
2019-12-02 21:00:00 13.2 4 Nordeste 21 Este 0.8 1007.3 1.7 97
2019-12-02 20:00:00 13.1 10 Nordeste 19 Nordeste 0.4 1006.8 1.2 95
2019-12-02 19:00:00 13.5 10 Este 17 Nordeste 1.4 1006.1 0.9 95
2019-12-02 18:00:00 13.5 6 Noroeste 8 Norte 0.6 1005.6 0.7 95
2019-12-02 17:00:00 13.6 3 Sudeste 7 Sudoeste 1.8 1005.6 0.7 93
2019-12-02 16:00:00 14.3 4 Sudoeste 10 Oeste 0.6 1005.2 -0.3 87
2019-12-02 15:00:00 14.8 8 Noroeste 12 Oeste 0 1004.9 -1.1 82
2019-12-02 14:00:00 14.7 6 Norte 9 Nordeste 0 1004.9 -1 80
2019-12-02 13:00:00 14.3 5 Noroeste 8 Noroeste 0 1005.5 0.2 85
2019-12-02 12:00:00 13.7 6 Noroeste 15 Noroeste 0 1006 1.2 86
2019-12-02 11:00:00 13.4 6 Nordeste 12 Norte 0 1005.9 2 86
2019-12-02 10:00:00 13.1 7 Nordeste 11 Nordeste 0 1005.3 2 89
2019-12-02 09:00:00 13.2 4 Sudoeste 12 Sudoeste 0.2 1004.8 2.1 88
2019-12-02 08:00:00 13.4 3 Sudoeste 14 Noroeste 0 1003.9 1.3 84
2019-12-02 07:00:00 13.4 0 Calma 27 Este 0 1003.3 0.7 83
2019-12-02 06:00:00 13.7 11 Este 24 Nordeste 0 1002.7 0.4 82
2019-12-02 05:00:00 13.3 5 Sur 14 Nordeste 0 1002.6 -0.1 89
2019-12-02 04:00:00 13.2 7 Nordeste 18 Nordeste 0 1002.6 -0.4 90
2019-12-02 03:00:00 12.8 9 Nordeste 20 Este 0 1002.3 -1 89
2019-12-02 02:00:00 13.2 7 Este 13 Este 0 1002.7 -0.6 85
2019-12-02 01:00:00 13.1 0 Calma 8 Sudoeste 0 1003 -0.5 90
2019-12-02 00:00:00 12.1 2 Noroeste 6 Nordeste 0 1003.3 -0.2 93
2019-12-01 23:00:00 12.8 2 Norte 6 Sudoeste 0 1003.3 0 89
2019-12-01 22:00:00 12.7 4 Nordeste 10 Este 0 1003.5 0.9 91
2019-12-01 21:00:00 13.3 9 Nordeste 17 Nordeste 0 1003.5 1.2 90
2019-12-01 20:00:00 13.9 13 Nordeste 22 Este 0 1003.3 0.9 87
2019-12-01 19:00:00 14.7 10 Nordeste 15 Nordeste 0 1002.6 0.1 75
2019-12-01 18:00:00 17.6 4 Sudeste 11 Este 0 1002.3 -0.5 62
2019-12-01 17:00:00 19.4 4 Este 9 Nordeste 0 1002.4 -1.1 49
2019-12-01 16:00:00 20.9 4 Este 13 Norte 0 1002.5 -1.8 42
2019-12-01 15:00:00 21.1 3 Oeste 18 Noroeste 0 1002.8 -2.7 43
2019-12-01 14:00:00 20.1 12 Noroeste 22 Noroeste 0 1003.5 -2.4 47
2019-12-01 13:00:00 19.4 13 Noroeste 26 Noroeste 0 1004.3 -1.7 51
2019-12-01 12:00:00 17.6 9 Noroeste 17 Noroeste 0 1005.5 -0.3 59
2019-12-01 11:00:00 14.8 4 Oeste 11 Sudoeste 0 1005.9 0.4 69
2019-12-01 10:00:00 11.9 8 Sudoeste 12 Sudoeste 0 1006 0.7 80
2019-12-01 09:00:00 8.9 4 Sur 10 Sudeste 0 1005.8 0.4 92
2019-12-01 08:00:00 9 5 Noroeste 12 Sudoeste 0 1005.5 -0.1 93
2019-12-01 07:00:00 9 4 Sudoeste 11 Oeste 0 1005.3 -0.7 95
2019-12-01 06:00:00 9 5 Sudoeste 12 Sur 0 1005.4 -0.9 91
2019-12-01 05:00:00 9.1 4 Oeste 12 Sur 0 1005.6 -1 92
2019-12-01 04:00:00 9.3 6 Sur 10 Sur 0 1006 -1.1 92
2019-12-01 03:00:00 11.1 4 Sudoeste 12 Sudoeste 0 1006.3 -1.2 90
2019-12-01 02:00:00 10.8 4 Sur 9 Oeste 0 1006.6 -1.4 90
2019-12-01 01:00:00 11.2 5 Sur 9 Noroeste 0 1007.1 -1.5 90
2019-12-01 00:00:00 11.5 6 Norte 10 Norte 0 1007.5 -1.3 91
2019-11-30 23:00:00 11.9 2 Sur 10 Noroeste 0 1008 -0.6 88
2019-11-30 22:00:00 13.1 2 Oeste 8 Sudoeste 0 1008.6 0.2 86
2019-11-30 21:00:00 13.4 0 Calma 6 Oeste 0 1008.8 0.4 83
2019-11-30 20:00:00 14.5 3 Oeste 6 Oeste 0 1008.6 -0.1 75
2019-11-30 19:00:00 16.5 3 Oeste 12 Sur 0 1008.4 -0.9 68
2019-11-30 18:00:00 19.7 5 Sudeste 10 Sur 0 1008.4 -1.6 57
2019-11-30 17:00:00 22.8 0 Calma 5 Este 0 1008.7 -2.3 48
2019-11-30 16:00:00 23.2 4 Sudeste 10 Sudeste 0 1009.3 -3.1 46
2019-11-30 15:00:00 22.8 4 Sudoeste 16 Oeste 0 1010 -3.8 46
2019-11-30 14:00:00 22.3 4 Sudoeste 11 Sudoeste 0 1011 -3.5 47
2019-11-30 13:00:00 21.1 4 Sur 11 Oeste 0 1012.4 -1.9 52
2019-11-30 12:00:00 19.2 6 Oeste 12 Noroeste 0 1013.8 -0.8 57
2019-11-30 11:00:00 18 6 Sudoeste 13 Oeste 0 1014.5 -0.1 62
2019-11-30 10:00:00 15.9 7 Sudoeste 12 Oeste 0 1014.3 0.3 69
2019-11-30 09:00:00 13.2 8 Sudoeste 16 Oeste 0 1014.6 0.8 78
2019-11-30 08:00:00 12.7 10 Oeste 15 Oeste 0 1014.6 0.7 81
2019-11-30 07:00:00 12.6 5 Sudoeste 10 Oeste 0 1014 -0.1 81
2019-11-30 06:00:00 12.6 5 Sudoeste 11 Sudoeste 0 1013.8 -0.3 82
2019-11-30 05:00:00 13.4 8 Oeste 15 Oeste 0 1013.9 -0.1 79
2019-11-30 04:00:00 13.7 8 Oeste 14 Oeste 0 1014.1 0 78
2019-11-30 03:00:00 13.7 6 Oeste 15 Oeste 0 1014.1 -0.1 77
2019-11-30 02:00:00 13.3 6 Sudoeste 14 Oeste 0 1014 -0.1 79
2019-11-30 01:00:00 14 4 Sudoeste 10 Sudoeste 0 1014.1 0.2 76
2019-11-30 00:00:00 14.8 7 Oeste 14 Oeste 0 1014.2 0.4 74
2019-11-29 23:00:00 15.3 8 Oeste 14 Oeste 0 1014.1 0.5 72
2019-11-29 22:00:00 15.2 8 Oeste 12 Oeste 0 1013.9 0.8 73
2019-11-29 21:00:00 15.7 6 Oeste 10 Noroeste 0 1013.8 1.1 72
2019-11-29 20:00:00 16.7 4 Sudoeste 6 Sudoeste 0 1013.6 1.1 68
2019-11-29 19:00:00 16.9 4 Noroeste 10 Noroeste 0 1013.1 1.2 67
2019-11-29 18:00:00 19 8 Noroeste 16 Noroeste 0 1012.7 0.8 59
2019-11-29 17:00:00 20.7 13 Noroeste 24 Noroeste 0 1012.5 0.3 52
2019-11-29 16:00:00 21.7 12 Noroeste 27 Norte 0 1011.9 -0.7 51
2019-11-29 15:00:00 22.7 17 Noroeste 30 Noroeste 0 1011.9 -1.1 48
2019-11-29 14:00:00 22.6 12 Noroeste 24 Noroeste 0 1012.2 -1.1 46
2019-11-29 13:00:00 22.2 8 Oeste 20 Sudoeste 0 1012.6 -0.4 46
2019-11-29 12:00:00 20.4 10 Oeste 15 Oeste 0 1013 0.3 49
2019-11-29 11:00:00 18.7 8 Sudoeste 15 Sudoeste 0 1013.3 1.1 55
2019-11-29 10:00:00 15.2 6 Sudoeste 12 Sudoeste 0 1013 1.5 66
2019-11-29 09:00:00 10.9 5 Sudoeste 10 Sudoeste 0 1012.7 1.5 78
2019-11-29 08:00:00 8.5 5 Oeste 7 Sur 0 1012.2 1.1 88
2019-11-29 07:00:00 7.9 2 Sur 10 Sudoeste 0 1011.5 0.3 88
2019-11-29 06:00:00 11.1 7 Sudoeste 12 Oeste 0 1011.2 -0.2 72
2019-11-29 05:00:00 12 8 Oeste 16 Oeste 0 1011.1 -0.2 68
2019-11-29 04:00:00 11.7 6 Oeste 15 Oeste 0 1011.2 -0.3 73
2019-11-29 03:00:00 10.1 5 Sur 11 Sudoeste 0 1011.4 -0.5 80
2019-11-29 02:00:00 10.7 4 Sudoeste 10 Sudoeste 0 1011.3 -0.6 80
2019-11-29 01:00:00 12.4 8 Sudoeste 13 Sudoeste 0 1011.5 0.4 74
2019-11-29 00:00:00 11.8 8 Oeste 11 Sudoeste 0 1011.9 1.3 79
2019-11-28 23:00:00 11.9 5 Sudoeste 10 Sur 0 1011.9 1.9 82
2019-11-28 22:00:00 12 4 Sudoeste 8 Sudoeste 0 1011.1 1.7 80
2019-11-28 21:00:00 13.1 6 Sur 10 Sur 0 1010.6 1.6 78
2019-11-28 20:00:00 14.3 6 Sudoeste 10 Sudoeste 0 1010 1.1 71
2019-11-28 19:00:00 15.5 3 Sudoeste 9 Sur 0 1009.4 0.6 66
2019-11-28 18:00:00 17.9 3 Oeste 6 Noroeste 0 1009 0 56
2019-11-28 17:00:00 21 2 Sudoeste 6 Sur 0 1008.9 -0.8 45
2019-11-28 16:00:00 22 3 Sudeste 8 Sudeste 0 1008.8 -1.6 40
2019-11-28 15:00:00 22 5 Sur 9 Sudeste 0 1009 -2.3 40
2019-11-28 14:00:00 21.2 4 Sudeste 14 Sudoeste 0 1009.7 -2.2 42
2019-11-28 13:00:00 20 6 Noroeste 18 Noroeste 0 1010.4 -1.2 46
2019-11-28 12:00:00 18.5 10 Noroeste 21 Noroeste 0 1011.3 0.3 51
2019-11-28 11:00:00 17.7 3 Sudoeste 8 Oeste 0 1011.9 1.7 52
2019-11-28 10:00:00 14.4 4 Sur 12 Sudoeste 0 1011.6 2.4 63
2019-11-28 09:00:00 9.7 5 Sudoeste 8 Sudoeste 0 1011 2.4 80
2019-11-28 08:00:00 9.2 5 Sur 11 Sur 0 1010.2 1.7 78
2019-11-28 07:00:00 9.7 6 Noroeste 8 Oeste 0 1009.2 0.9 77
2019-11-28 06:00:00 9.3 4 Oeste 11 Sur 0 1008.6 0.5 79
2019-11-28 05:00:00 9.6 6 Sudoeste 9 Sur 0 1008.5 0.2 77
2019-11-28 04:00:00 10.7 4 Sudoeste 13 Oeste 0 1008.3 -0.1 71
2019-11-28 03:00:00 9.8 5 Sudoeste 10 Oeste 0 1008.1 -0.1 76
2019-11-28 02:00:00 10.7 5 Oeste 14 Sur 0 1008.3 0.2 73
2019-11-28 01:00:00 11.9 5 Sudoeste 13 Sur 0 1008.4 1.4 68
2019-11-28 00:00:00 10.1 5 Noroeste 13 Sur 0 1008.2 1.2 79
2019-11-27 23:00:00 11.8 3 Sur 10 Oeste 0 1008.1 1.9 71
2019-11-27 22:00:00 13.9 5 Oeste 10 Sudoeste 0 1007 1.2 63
2019-11-27 21:00:00 14.2 4 Oeste 14 Oeste 0 1007 2.4 62
2019-11-27 20:00:00 16.1 6 Oeste 19 Oeste 0 1006.2 1.9 54
2019-11-27 19:00:00 18.1 8 Oeste 25 Noroeste 0 1005.8 2 46
2019-11-27 18:00:00 19.1 18 Noroeste 34 Noroeste 0 1004.6 0.8 43
2019-11-27 17:00:00 21 21 Noroeste 35 Noroeste 0 1004.3 0.1 39
2019-11-27 16:00:00 22.5 15 Noroeste 28 Noroeste 0 1003.8 -0.8 37
2019-11-27 15:00:00 23.4 13 Noroeste 23 Noroeste 0 1003.8 -1.6 39
2019-11-27 14:00:00 23.5 12 Noroeste 22 Noroeste 0 1004.2 -1.8 42
2019-11-27 06:00:00 10.2 5 Oeste 10 Norte 0 1003.1 -0.4 93
2019-11-27 05:00:00 11.4 4 Oeste 14 Norte 0 1002.9 -0.3 90
2019-11-27 04:00:00 11 4 Norte 16 Oeste 0 1002.9 -0.9 90
2019-11-27 03:00:00 11.9 11 Oeste 17 Oeste 0 1003.5 -0.2 88
2019-11-27 02:00:00 11.6 5 Sur 15 Noroeste 0 1003.2 -0.9 89
2019-11-27 01:00:00 12.2 4 Sur 8 Noroeste 0 1003.8 -0.5 91
2019-11-27 00:00:00 12.2 4 Sudoeste 9 Sudoeste 0 1003.7 -0.9 90
2019-11-26 23:00:00 12.4 3 Sudoeste 5 Sudoeste 0 1004.1 -0.4 91
2019-11-26 22:00:00 13.6 3 Sudoeste 9 Sur 0 1004.3 -0.4 86
2019-11-26 21:00:00 15.6 3 Sur 14 Oeste 0 1004.6 0.4 80
2019-11-26 20:00:00 15.3 0 Calma 8 Sur 0 1004.5 0.6 82
2019-11-26 19:00:00 17.4 6 Sudoeste 19 Sudoeste 0 1004.7 0.2 72
2019-11-26 18:00:00 18.7 8 Sudoeste 15 Sudoeste 0 1004.2 -0.8 65
2019-11-26 17:00:00 21.1 5 Sudoeste 10 Sur 0 1003.9 -1.8 54
2019-11-26 16:00:00 22.7 5 Sur 10 Sur 0 1004.5 -2 45
2019-11-26 15:00:00 23.1 3 Sudoeste 11 Oeste 0 1005 -2.7 44
2019-11-26 14:00:00 22 5 Oeste 13 Oeste 0 1005.7 -2.9 46
2019-11-26 13:00:00 21.3 4 Sur 11 Sudoeste 0 1006.5 -2 49
2019-11-26 12:00:00 19.2 6 Noroeste 13 Oeste 0 1007.7 -0.6 57
2019-11-26 11:00:00 17.2 7 Sudoeste 12 Sudoeste 0 1008.6 0.6 63
2019-11-26 10:00:00 12.9 3 Sudoeste 8 Sudoeste 0 1008.5 0.5 81
2019-11-26 09:00:00 10.6 4 Sudoeste 8 Sur 0 1008.3 0.5 87
2019-11-26 08:00:00 10.4 4 Sudoeste 14 Sudoeste 0 1008 0 87
2019-11-26 07:00:00 10.9 7 Sur 15 Oeste 0 1008 0 83
2019-11-26 06:00:00 10.7 6 Oeste 16 Sur 0 1007.8 -0.4 86
2019-11-26 05:00:00 10.4 5 Oeste 14 Sur 0 1008 0 88
2019-11-26 04:00:00 11.5 5 Oeste 13 Sudoeste 0 1008 -0.7 86
2019-11-26 03:00:00 11.6 6 Sudoeste 10 Sudoeste 0 1008.2 -0.7 87
2019-11-26 02:00:00 11.3 2 Sudeste 6 Sudoeste 0 1008 -0.7 88
2019-11-26 01:00:00 12.8 4 Sudoeste 9 Sudoeste 0 1008.7 0.2 83
2019-11-26 00:00:00 13.4 5 Sudoeste 10 Sudoeste 0 1008.9 0.5 81
2019-11-25 23:00:00 13.7 6 Sur 11 Sur 0 1008.7 0.9 80
2019-11-25 22:00:00 15.1 9 Oeste 15 Oeste 0 1008.5 1.3 74
2019-11-25 21:00:00 14.2 6 Oeste 12 Sudeste 0 1008.4 1.7 80
2019-11-25 20:00:00 17.1 8 Oeste 13 Oeste 0 1007.8 1.6 67
2019-11-25 19:00:00 17.8 5 Oeste 20 Oeste 0 1007.2 1.4 64
2019-11-25 18:00:00 19.8 14 Oeste 30 Noroeste 0 1006.7 0.8 56
2019-11-25 17:00:00 20.4 6 Noroeste 10 Norte 0 1006.2 -0.2 58
2019-11-25 16:00:00 21.4 3 Sudeste 10 Oeste 0 1005.8 -1.4 52
2019-11-25 15:00:00 21.6 5 Oeste 12 Sudoeste 0 1005.9 -2.3 49
2019-11-25 14:00:00 22.3 4 Sudoeste 8 Sudoeste 0 1006.4 -2.3 45
2019-11-25 13:00:00 19.8 2 Sudoeste 10 Sudoeste 0 1007.2 -1 49
2019-11-25 12:00:00 17.2 5 Sudoeste 10 Sudoeste 0 1008.2 0.2 57
2019-11-25 11:00:00 12.7 4 Sur 10 Sudeste 0 1008.7 0.7 69
2019-11-25 10:00:00 11.3 3 Sur 11 Oeste 0 1008.2 0.6 74
2019-11-25 09:00:00 9.1 6 Sudoeste 9 Sudoeste 0 1008 0.8 77
2019-11-25 08:00:00 8.2 3 Oeste 11 Oeste 0 1008 0.7 79
2019-11-25 07:00:00 7.4 7 Sudoeste 10 Sudoeste 0 1007.6 0 82
2019-11-25 06:00:00 6.2 4 Norte 6 Norte 0 1007.2 -0.8 84
2019-11-25 05:00:00 6 4 Este 6 Este 0 1007.3 -0.8 82
2019-11-25 04:00:00 7.9 3 Sur 13 Sudoeste 0 1007.6 -0.7 71
2019-11-25 03:00:00 7.4 4 Sur 10 Sur 0 1008 -0.2 76
2019-11-25 02:00:00 7.6 3 Sudoeste 8 Sudoeste 0 1008.1 -0.3 78
2019-11-25 01:00:00 8.2 3 Noroeste 8 Norte 0 1008.3 0.2 74
2019-11-25 00:00:00 8.3 3 Este 8 Noroeste 0 1008.2 0.1 71
2019-11-24 23:00:00 8.7 3 Sudoeste 9 Noroeste 0 1008.4 0.6 69
2019-11-24 22:00:00 8.8 6 Oeste 9 Oeste 0 1008.1 0.5 72
2019-11-24 21:00:00 10 4 Noroeste 18 Noroeste 0 1008.1 1.2 65
2019-11-24 20:00:00 11.9 10 Norte 20 Norte 0 1007.8 1.1 52
2019-11-24 19:00:00 13.3 9 Oeste 20 Oeste 0 1007.6 1 48
2019-11-24 18:00:00 14.5 7 Noroeste 11 Sudoeste 0 1006.9 0.6 47
2019-11-24 17:00:00 16.8 5 Norte 17 Noroeste 0 1006.7 0.3 37
2019-11-24 16:00:00 16.2 12 Noroeste 33 Oeste 0 1006.6 -0.2 40
2019-11-24 15:00:00 16.2 21 Oeste 41 Oeste 0 1006.3 -1.5 40
2019-11-24 14:00:00 17 17 Oeste 43 Noroeste 0 1006.4 -1.8 39
2019-11-24 13:00:00 16.2 22 Oeste 34 Oeste 0 1006.8 -0.5 41
2019-11-24 12:00:00 15.4 15 Oeste 37 Noroeste 0 1007.8 0.7 43
2019-11-24 11:00:00 15.5 17 Oeste 36 Noroeste 0 1008.2 1.7 44
2019-11-24 10:00:00 14.1 7 Norte 21 Noroeste 0 1007.3 1.9 50
2019-11-24 09:00:00 10 4 Nordeste 10 Norte 0 1007.1 1.8 65
2019-11-24 08:00:00 7.7 4 Noroeste 8 Oeste 0 1006.5 1.7 71
2019-11-24 07:00:00 10.6 4 Noroeste 24 Oeste 0 1005.4 0.9 57
2019-11-24 06:00:00 11 12 Oeste 20 Noroeste 0 1005.3 1 56
2019-11-24 05:00:00 12 13 Oeste 26 Oeste 0 1004.8 0.8 50
2019-11-24 04:00:00 12.1 12 Oeste 21 Oeste 0 1004.5 0.6 50
2019-11-24 03:00:00 11.4 12 Oeste 16 Oeste 0 1004.3 1.2 52
2019-11-24 02:00:00 11.6 9 Oeste 16 Oeste 0 1004 2.1 53
2019-11-24 01:00:00 13 10 Sudoeste 21 Sur 0 1003.9 2.1 47
2019-11-24 00:00:00 13.4 9 Sudoeste 35 Oeste 0 1003.1 2 47
2019-11-23 23:00:00 14.1 24 Oeste 41 Noroeste 0 1001.9 1.3 46
2019-11-23 22:00:00 14.1 20 Oeste 31 Oeste 0 1001.8 2.1 44
2019-11-23 21:00:00 14.5 17 Oeste 32 Oeste 0 1001.1 2.4 42
2019-11-23 20:00:00 15.1 17 Oeste 41 Noroeste 0 1000.6 3.2 40
2019-11-23 19:00:00 15.2 11 Oeste 26 Oeste 0 999.7 3.4 40
2019-11-23 18:00:00 16.1 14 Sudoeste 33 Oeste 0 998.7 3.7 37
2019-11-23 17:00:00 17.2 21 Oeste 43 Oeste 0 997.4 2.8 34
2019-11-23 16:00:00 17.6 28 Oeste 53 Noroeste 0 996.3 1.9 32
2019-11-23 15:00:00 18.1 30 Oeste 52 Oeste 0 995 1 31
2019-11-23 14:00:00 18.1 21 Noroeste 54 Noroeste 0 994.6 1.4 36
2019-11-23 13:00:00 17.7 33 Oeste 55 Noroeste 0 994.4 2.3 37
2019-11-23 12:00:00 17.6 23 Oeste 49 Oeste 0 994 2.9 37
2019-11-23 11:00:00 16.8 19 Oeste 49 Oeste 0 993.2 3.6 43
2019-11-23 10:00:00 15.9 24 Oeste 45 Oeste 0 992.1 2.9 43
2019-11-23 09:00:00 13.7 9 Sudoeste 20 Sudoeste 0 991.1 1.6 54
2019-11-23 08:00:00 12.6 4 Oeste 44 Oeste 0 989.6 0.8 62
2019-11-23 07:00:00 13.7 16 Oeste 32 Oeste 0 989.2 1.4 59
2019-11-23 06:00:00 14.5 12 Sudoeste 31 Oeste 0 989.5 1.1 55
2019-11-23 05:00:00 12.6 11 Noroeste 28 Sudoeste 0 988.8 0.2 65
2019-11-23 04:00:00 15.9 18 Sudoeste 55 Oeste 0 987.8 -0.8 48
2019-11-23 03:00:00 11.1 5 Noroeste 17 Sur 0 988.4 -0.7 88
2019-11-23 02:00:00 10.7 3 Noroeste 12 Sudoeste 0 988.6 -0.7 96
2019-11-23 01:00:00 11.3 4 Sudoeste 9 Sur 0 988.6 -1.5 97
2019-11-23 00:00:00 12.6 4 Sudoeste 15 Oeste 0 989.1 -1.8 93
2019-11-22 23:00:00 12 4 Noroeste 10 Norte 0 989.3 -1.5 96
2019-11-22 22:00:00 12.9 4 Nordeste 13 Norte 0 990.1 -0.9 96
2019-11-22 21:00:00 13.5 9 Norte 14 Norte 0 990.9 -1.1 96
2019-11-22 20:00:00 13.8 5 Nordeste 13 Noroeste 1.6 990.8 -1.3 95
2019-11-22 19:00:00 14.1 3 Norte 18 Sur 1.2 991 -1.9 93
2019-11-22 18:00:00 14.9 10 Sur 25 Sur 0.6 992 -2.1 85
2019-11-22 17:00:00 15.2 6 Sur 27 Sur 0 992.1 -3.2 83
2019-11-22 16:00:00 13.9 4 Nordeste 15 Nordeste 0.2 992.9 -3.4 92
2019-11-22 15:00:00 13.8 6 Este 10 Este 0 994.1 -4.2 90
2019-11-22 14:00:00 13.5 3 Este 8 Norte 0 995.3 -3.9 90
2019-11-22 13:00:00 12.2 7 Norte 13 Norte 0 996.3 -3.4 94
2019-11-22 12:00:00 11.4 4 Noroeste 9 Noroeste 0.6 998.3 -1.3 92
2019-11-22 11:00:00 10.8 0 Calma 9 Sur 0.4 999.2 -0.6 93
2019-11-22 10:00:00 10.1 5 Sudoeste 9 Sur 0 999.7 0.2 93
2019-11-22 09:00:00 9.6 5 Sudoeste 8 Oeste 0 999.6 0.1 95
2019-11-22 08:00:00 9.3 5 Oeste 10 Noroeste 0 999.8 -0.2 95
2019-11-22 07:00:00 9.1 4 Oeste 7 Oeste 0 999.5 -0.5 96
2019-11-22 06:00:00 9 3 Noroeste 7 Noroeste 0 999.5 -1.1 95
2019-11-22 05:00:00 9.5 3 Sur 10 Sur 0 1000 -0.8 95
2019-11-22 04:00:00 10.2 2 Oeste 13 Oeste 0 1000 -1.2 94
2019-11-22 03:00:00 10.7 5 Sudoeste 9 Sur 0 1000.6 -0.9 94
2019-11-22 02:00:00 10.9 2 Oeste 8 Sur 0 1000.8 -0.7 94
2019-11-22 01:00:00 11.2 3 Nordeste 10 Noroeste 0 1001.2 -0.8 92
2019-11-22 00:00:00 11.6 4 Oeste 6 Noroeste 0 1001.5 -0.5 93
2019-11-21 23:00:00 11.9 3 Oeste 4 Sur 0.2 1001.5 -0.1 92
2019-11-21 22:00:00 12.3 4 Oeste 7 Noroeste 0.2 1002 0.6 87
2019-11-21 21:00:00 12.1 3 Oeste 4 Sudoeste 0 1002 0.9 85
2019-11-21 20:00:00 12.9 2 Este 9 Nordeste 0 1001.6 0.2 78
2019-11-21 19:00:00 13.3 6 Nordeste 10 Nordeste 0 1001.4 0 75
2019-11-21 18:00:00 14.1 5 Nordeste 10 Nordeste 0 1001.1 -0.5 71
2019-11-21 17:00:00 15.3 4 Este 7 Este 0 1001.4 -1 66
2019-11-21 16:00:00 16.3 5 Nordeste 8 Sudoeste 0 1001.4 -1.5 63
2019-11-21 15:00:00 14.7 4 Sur 10 Noroeste 0 1001.6 -2.1 69
2019-11-21 14:00:00 13.5 0 Calma 6 Sur 0 1002.4 -1.7 73
2019-11-21 13:00:00 13 2 Norte 9 Noroeste 0 1002.9 -1.3 72
2019-11-21 12:00:00 12.2 4 Oeste 9 Noroeste 0 1003.7 -0.2 76
2019-11-21 11:00:00 10.6 3 Sudoeste 10 Noroeste 0 1004.1 1 85
2019-11-21 10:00:00 9.2 6 Oeste 10 Sudoeste 0 1004.2 1.6 87
2019-11-21 09:00:00 8 5 Oeste 15 Noroeste 0 1003.9 1.4 91
2019-11-21 08:00:00 7.3 4 Oeste 13 Noroeste 0 1003.1 0.6 92
2019-11-21 07:00:00 7.1 2 Oeste 7 Sudoeste 0 1002.6 0.1 92
2019-11-21 06:00:00 7.7 4 Oeste 11 Sur 0 1002.5 -0.2 92
2019-11-21 05:00:00 7.9 3 Oeste 10 Noroeste 0 1002.5 -0.2 93
2019-11-21 04:00:00 8.4 6 Sudoeste 9 Sudoeste 0 1002.5 -0.4 92
2019-11-21 03:00:00 9.3 5 Oeste 10 Sur 0 1002.7 -0.2 90
2019-11-21 02:00:00 9.8 5 Sudoeste 12 Sudoeste 0 1002.7 -0.5 90
2019-11-21 01:00:00 9.7 3 Oeste 9 Noroeste 0 1002.9 -0.2 91
2019-11-21 00:00:00 10.4 4 Oeste 5 Oeste 0 1002.9 -0.3 86
2019-11-20 23:00:00 11.5 3 Sudoeste 7 Noroeste 0 1003.2 0.4 89
2019-11-20 22:00:00 12 2 Norte 7 Oeste 0 1003.1 0.4 89
2019-11-20 21:00:00 12.3 0 Calma 4 Sur 0 1003.2 0.5 88
2019-11-20 20:00:00 12.6 0 Calma 6 Noroeste 0.2 1002.8 0.3 84
2019-11-20 19:00:00 13.6 5 Oeste 9 Oeste 0.2 1002.7 0.2 79
2019-11-20 18:00:00 14.8 5 Sur 13 Sudeste 0 1002.7 0 61
2019-11-20 17:00:00 15.8 5 Sudeste 14 Sudeste 0 1002.5 -1.1 55
2019-11-20 16:00:00 16.5 5 Este 13 Sudeste 0 1002.5 -2.1 52
2019-11-20 15:00:00 17.1 5 Este 10 Este 0 1002.7 -2.9 51
2019-11-20 14:00:00 15.9 3 Sudeste 9 Sudeste 0 1003.6 -2.8 50
2019-11-20 13:00:00 15.6 2 Este 10 Este 0 1004.6 -2.2 50
2019-11-20 12:00:00 13.8 3 Sudeste 9 Este 0 1005.6 -1.1 54
2019-11-20 11:00:00 11.3 4 Noroeste 11 Norte 0 1006.4 -0.1 61
2019-11-20 10:00:00 8.9 5 Oeste 12 Oeste 0 1006.8 0.3 68
2019-11-20 09:00:00 6.7 5 Oeste 10 Noroeste 0 1006.7 0.1 78
2019-11-20 08:00:00 5.3 6 Oeste 9 Oeste 0 1006.5 -0.1 85
2019-11-20 07:00:00 5.6 4 Oeste 8 Oeste 0 1006.5 -0.5 85
2019-11-20 06:00:00 6 0 Calma 7 Sudoeste 0 1006.6 -0.8 83
2019-11-20 05:00:00 7.1 3 Sudoeste 8 Noroeste 0 1006.6 -1.2 80
2019-11-20 04:00:00 7.3 4 Sudoeste 9 Sur 0 1007 -1.4 82
2019-11-20 03:00:00 7.8 3 Sur 10 Oeste 0 1007.4 -1.1 81
2019-11-20 02:00:00 7.4 3 Sudoeste 13 Noroeste 0 1007.8 -1 82
2019-11-20 01:00:00 8.6 7 Noroeste 17 Noroeste 0 1008.4 -0.4 76
2019-11-20 00:00:00 9.1 5 Sudoeste 10 Oeste 0 1008.5 -0.2 83
2019-11-19 23:00:00 9.6 5 Noroeste 10 Noroeste 0 1008.8 0 82
2019-11-19 22:00:00 10.9 6 Sur 8 Sur 0 1008.8 0.3 75
2019-11-19 21:00:00 11.6 5 Noroeste 8 Noroeste 0 1008.7 0.5 71
2019-11-19 20:00:00 11.7 8 Norte 12 Norte 0 1008.8 0.9 71
2019-11-19 19:00:00 12 2 Noroeste 5 Sur 0 1008.5 0.4 64
2019-11-19 18:00:00 13.2 0 Calma 6 Sudeste 0 1008.2 -0.1 54
2019-11-19 17:00:00 16.3 3 Noroeste 10 Noroeste 0 1007.9 -1.1 37
2019-11-19 16:00:00 17.3 4 Noroeste 17 Norte 0 1008.1 -1.6 34
2019-11-19 15:00:00 17 11 Noroeste 21 Noroeste 0 1008.3 -2.6 36
2019-11-19 14:00:00 16.4 10 Noroeste 19 Noroeste 0 1009 -2.5 36
2019-11-19 13:00:00 15.7 9 Norte 17 Noroeste 0 1009.7 -1.9 39
2019-11-19 12:00:00 14.3 11 Noroeste 17 Oeste 0 1010.9 -0.5 42
2019-11-19 11:00:00 13.4 6 Sudoeste 10 Sudoeste 0 1011.5 0.9 47
2019-11-19 10:00:00 11.1 6 Sudoeste 9 Sudoeste 0 1011.6 1.2 51
2019-11-19 09:00:00 8.3 7 Sur 17 Noroeste 0 1011.4 1.3 63
2019-11-19 08:00:00 7.4 8 Oeste 20 Oeste 0 1010.6 0.7 64
2019-11-19 07:00:00 8.8 10 Oeste 19 Sudoeste 0 1010.4 0.7 57
2019-11-19 06:00:00 7.6 5 Oeste 15 Sudoeste 0 1010.1 0.1 65
2019-11-19 05:00:00 6.9 9 Sur 14 Sur 0 1009.9 -0.1 69
2019-11-19 04:00:00 6.7 3 Norte 15 Oeste 0 1009.7 -0.2 70
2019-11-19 03:00:00 8.6 8 Noroeste 22 Noroeste 0 1010 -0.2 63
2019-11-19 02:00:00 7.3 6 Sudoeste 13 Oeste 0 1010 0.3 71
2019-11-19 01:00:00 6.2 4 Norte 9 Sur 0 1009.9 1 77
2019-11-19 00:00:00 7.9 4 Oeste 11 Oeste 0 1010.2 1.6 71
2019-11-18 23:00:00 8.7 7 Noroeste 10 Noroeste 0 1009.7 1.5 68
2019-11-18 22:00:00 9.2 5 Oeste 12 Norte 0 1008.9 1.4 64
2019-11-18 21:00:00 9.3 9 Noroeste 14 Noroeste 0 1008.6 1.7 62
2019-11-18 20:00:00 11.1 4 Sur 14 Oeste 0 1008.2 2 51
2019-11-18 19:00:00 12.7 8 Oeste 17 Noroeste 0 1007.5 2.1 45
2019-11-18 18:00:00 13.5 12 Noroeste 35 Noroeste 0 1006.9 2.2 44
2019-11-18 17:00:00 14.9 20 Noroeste 35 Noroeste 0 1006.2 1.7 42
2019-11-18 16:00:00 15.9 23 Noroeste 39 Noroeste 0 1005.4 1 42
2019-11-18 15:00:00 16.2 29 Noroeste 47 Norte 0 1004.7 0.2 42
2019-11-18 14:00:00 16 21 Noroeste 42 Norte 0 1004.5 -0.1 45
2019-11-18 13:00:00 15.3 23 Noroeste 40 Noroeste 0 1004.4 1.1 48
2019-11-18 12:00:00 14.5 21 Noroeste 48 Noroeste 0 1004.5 2.2 53
2019-11-18 11:00:00 13.5 22 Noroeste 40 Oeste 0 1004.6 3 56
2019-11-18 10:00:00 12.7 22 Noroeste 42 Oeste 0 1003.3 1.5 59
2019-11-18 09:00:00 11.2 15 Noroeste 30 Noroeste 0 1002.3 0.8 68
2019-11-18 08:00:00 11.2 14 Oeste 30 Noroeste 0 1001.6 -0.1 73
2019-11-18 07:00:00 10.9 15 Oeste 23 Oeste 0 1001.8 0 79
2019-11-18 06:00:00 10.6 11 Oeste 18 Sudoeste 0.2 1001.5 -0.3 89
2019-11-18 05:00:00 10.8 12 Sudoeste 19 Sudoeste 1.8 1001.7 -0.6 95
2019-11-18 04:00:00 10.6 8 Oeste 13 Noroeste 1.4 1001.8 0.1 94
2019-11-18 03:00:00 10.2 5 Oeste 9 Sur 1 1001.8 -0.6 92
2019-11-18 02:00:00 11.3 8 Norte 12 Norte 0.8 1002.3 -0.6 92
2019-11-18 01:00:00 10.8 2 Este 6 Noroeste 0.2 1001.7 -2 87
2019-11-18 00:00:00 10.8 3 Norte 5 Norte 0 1002.4 -1.5 79
2019-11-17 23:00:00 10.6 2 Sudoeste 12 Sudoeste 0 1002.9 -1.5 72
2019-11-17 22:00:00 10.6 7 Norte 11 Norte 0 1003.7 -0.8 71
2019-11-17 21:00:00 10.6 4 Noroeste 13 Sur 0 1003.9 -0.9 67
2019-11-17 20:00:00 11.2 4 Oeste 8 Oeste 0 1004.4 -0.5 65
2019-11-17 19:00:00 12.7 2 Oeste 8 Noroeste 0 1004.5 -0.7 57
2019-11-17 18:00:00 15.3 5 Noroeste 11 Noroeste 0 1004.8 -0.9 46
2019-11-17 17:00:00 16.8 5 Oeste 14 Sudoeste 0 1004.9 -1.6 38
2019-11-17 16:00:00 19.1 4 Oeste 17 Oeste 0 1005.2 -2.3 33
2019-11-17 15:00:00 18.1 6 Sudoeste 19 Sudoeste 0 1005.7 -3.1 31
2019-11-17 14:00:00 17.1 9 Sudoeste 18 Oeste 0 1006.5 -2.9 32
2019-11-17 13:00:00 15.9 9 Sudoeste 17 Sudoeste 0 1007.5 -2.1 32
2019-11-17 12:00:00 14 10 Sudoeste 17 Sudoeste 0 1008.8 -0.8 35
2019-11-17 11:00:00 13.1 8 Sudoeste 14 Sudoeste 0 1009.4 0.1 41
2019-11-17 10:00:00 10 3 Sur 10 Sudoeste 0 1009.6 0.4 52
2019-11-17 09:00:00 6.2 6 Sudoeste 11 Sudoeste 0 1009.6 0.7 62
2019-11-17 08:00:00 3.4 4 Sur 11 Sudoeste 0 1009.3 0.6 73
2019-11-17 07:00:00 3.8 5 Sudoeste 9 Sur 0 1009.2 0.3 71
2019-11-17 06:00:00 3.9 6 Noroeste 8 Noroeste 0 1008.9 -0.3 70
2019-11-17 05:00:00 5.1 4 Sudoeste 12 Sudoeste 0 1008.7 -0.5 65
2019-11-17 04:00:00 4.9 5 Oeste 13 Noroeste 0 1008.9 -0.3 65
2019-11-17 03:00:00 5.6 4 Sudoeste 7 Oeste 0 1009.2 -0.1 64
2019-11-17 02:00:00 7.9 6 Oeste 13 Oeste 0 1009.2 -0.1 52
2019-11-17 01:00:00 6.2 5 Oeste 10 Oeste 0 1009.2 0 60
2019-11-17 00:00:00 7.7 4 Sur 10 Sudeste 0 1009.3 0.3 55
2019-11-16 23:00:00 7.9 4 Oeste 14 Sudoeste 0 1009.3 0.7 56
2019-11-16 22:00:00 11.4 12 Oeste 19 Oeste 0 1009.2 1.4 44
2019-11-16 21:00:00 11.6 12 Oeste 20 Sudoeste 0 1009 2 43
2019-11-16 20:00:00 11.7 9 Oeste 15 Noroeste 0 1008.6 2.4 43
2019-11-16 19:00:00 11.9 9 Noroeste 15 Noroeste 0 1007.8 2.2 38
2019-11-16 18:00:00 13.9 11 Noroeste 27 Noroeste 0 1007 1.8 31
2019-11-16 17:00:00 15.8 13 Noroeste 32 Oeste 0 1006.2 1.1 29
2019-11-16 16:00:00 16.2 20 Noroeste 40 Oeste 0 1005.6 0.3 28
2019-11-16 15:00:00 16.2 22 Noroeste 38 Oeste 0 1005.2 -0.8 32
2019-11-16 14:00:00 15.6 24 Noroeste 41 Noroeste 0 1005.1 -1 35
2019-11-16 13:00:00 14.7 20 Noroeste 40 Noroeste 0 1005.3 -0.5 38
2019-11-16 12:00:00 13.8 22 Noroeste 41 Noroeste 0 1006 1 41
2019-11-16 11:00:00 12.2 21 Noroeste 38 Noroeste 0 1006.1 2.1 47
2019-11-16 10:00:00 11.1 17 Noroeste 28 Noroeste 0 1005.8 2.7 51
2019-11-16 09:00:00 7.3 3 Sudoeste 9 Sur 0 1005 2.7 71
2019-11-16 08:00:00 5.9 4 Sudoeste 10 Sudoeste 0 1004 2.4 72
2019-11-16 07:00:00 4.1 3 Sudoeste 6 Oeste 0 1003.1 1.8 80
2019-11-16 06:00:00 4.8 3 Oeste 10 Sudoeste 0 1002.3 1.4 77
2019-11-16 05:00:00 6.8 8 Sudoeste 13 Sudoeste 0 1001.6 1.1 67
2019-11-16 04:00:00 4.7 3 Oeste 6 Noroeste 0 1001.3 0.2 79
2019-11-16 03:00:00 4.9 2 Norte 5 Oeste 0 1000.9 -0.1 75
2019-11-16 02:00:00 6.1 4 Oeste 7 Oeste 0 1000.5 0.1 71
2019-11-16 01:00:00 6.5 2 Noroeste 7 Noroeste 0 1001.1 1 74
2019-11-16 00:00:00 5.3 3 Noroeste 9 Norte 0 1001 1.6 75
2019-11-15 23:00:00 5.7 3 Sudoeste 6 Sudoeste 0 1000.4 1.3 70
2019-11-15 22:00:00 7.1 2 Oeste 10 Sur 0 1000.1 1.5 66
2019-11-15 21:00:00 8.9 3 Sur 14 Noroeste 0 999.4 1.3 57
2019-11-15 20:00:00 10.8 11 Oeste 20 Noroeste 0 999.1 1.4 48
2019-11-15 19:00:00 11.2 10 Oeste 21 Noroeste 0 998.6 1.3 46
2019-11-15 18:00:00 12.2 12 Noroeste 31 Noroeste 0 998.1 0.9 42
2019-11-15 17:00:00 14 18 Noroeste 29 Noroeste 0 997.7 0.3 38
2019-11-15 16:00:00 15.7 11 Oeste 30 Noroeste 0 997.3 -0.7 33
2019-11-15 15:00:00 15.8 13 Noroeste 33 Noroeste 0 997.2 -1.5 34
2019-11-15 14:00:00 15.4 19 Oeste 35 Oeste 0 997.4 -1.4 35
2019-11-15 13:00:00 14.9 18 Oeste 30 Oeste 0 998 -0.7 38
2019-11-15 12:00:00 14.5 16 Oeste 26 Oeste 0 998.7 0.3 44
2019-11-15 11:00:00 13.6 8 Noroeste 17 Oeste 0 998.8 1.4 51
2019-11-15 10:00:00 11.7 4 Sudoeste 8 Oeste 0 998.7 1.8 57
2019-11-15 09:00:00 8.8 2 Nordeste 6 Sudoeste 0 998.4 1.8 74
2019-11-15 08:00:00 7.2 4 Oeste 7 Oeste 0 997.4 1.1 77
2019-11-15 07:00:00 8.9 5 Sudoeste 12 Sudoeste 0 996.9 0.8 69
2019-11-15 06:00:00 8.3 5 Oeste 8 Noroeste 0 996.6 0.5 72
2019-11-15 05:00:00 7.9 3 Oeste 6 Sur 0 996.3 0.8 74
2019-11-15 04:00:00 8.8 5 Oeste 9 Oeste 0 996.1 0.6 69
2019-11-15 03:00:00 11.3 4 Oeste 23 Oeste 0 996.1 0.8 55
2019-11-15 02:00:00 11.5 13 Sudoeste 22 Sudoeste 0 995.5 0 53
2019-11-15 01:00:00 12 6 Sudoeste 31 Oeste 0 995.5 -0.3 51
2019-11-15 00:00:00 13.1 19 Oeste 32 Oeste 0 995.3 -0.4 44
2019-11-14 23:00:00 12.8 14 Oeste 24 Sudoeste 0 995.5 -0.3 45
2019-11-14 22:00:00 12.2 13 Oeste 30 Oeste 0 995.8 -0.2 48
2019-11-14 21:00:00 12.1 17 Oeste 26 Oeste 0 995.7 0.2 50
2019-11-14 20:00:00 10.9 11 Oeste 14 Oeste 0 995.8 -0.1 61
2019-11-14 19:00:00 11.6 9 Oeste 20 Oeste 0 996 0 60
2019-11-14 18:00:00 10.9 5 Noroeste 11 Sur 0 995.5 -0.9 82
2019-11-14 17:00:00 11.4 6 Sur 13 Sur 0 995.9 0.9 83
2019-11-14 16:00:00 10.7 8 Sur 30 Noroeste 0.8 996 2.2 83
2019-11-14 15:00:00 10.5 21 Noroeste 57 Norte 1 996.4 0.8 79
2019-11-14 14:00:00 15.1 33 Noroeste 56 Noroeste 0 995 -1.8 49
2019-11-14 13:00:00 17.4 17 Sudoeste 34 Sudoeste 0 993.8 -3.1 41
2019-11-14 12:00:00 17.4 8 Sur 23 Oeste 0 995.6 -1.4 43
2019-11-14 11:00:00 17.3 14 Oeste 35 Oeste 0 996.8 -0.2 43
2019-11-14 10:00:00 15.9 3 Sudoeste 20 Sur 0 996.9 -0.4 50
2019-11-14 09:00:00 16.4 10 Sudoeste 22 Sudoeste 0 997 -1.2 45
2019-11-14 08:00:00 15.6 13 Sudoeste 28 Oeste 0 997 -1.7 52
2019-11-14 07:00:00 14.6 17 Oeste 27 Oeste 0 997.3 -3.1 59
2019-11-14 06:00:00 10.7 6 Sudoeste 10 Sudoeste 0 998.2 -3.8 82
2019-11-14 05:00:00 10.1 0 Calma 5 Nordeste 0 998.7 -3.7 84
2019-11-14 04:00:00 11.2 2 Oeste 7 Oeste 0 1000.4 -3.2 80
2019-11-14 03:00:00 11.8 6 Noroeste 9 Sudoeste 0 1002 -2.1 75
2019-11-14 02:00:00 12.1 0 Calma 10 Noroeste 0 1002.4 -2.7 75
2019-11-14 01:00:00 12.8 8 Norte 12 Nordeste 0 1003.6 -1.4 74
2019-11-14 00:00:00 13.3 3 Norte 9 Oeste 0 1004.1 -1 70
2019-11-13 23:00:00 16.6 6 Oeste 10 Sudoeste 0 1005.1 0.6 56
2019-11-13 22:00:00 17.5 5 Oeste 12 Sudoeste 0 1005 1.1 55
2019-11-13 21:00:00 18.2 5 Oeste 9 Oeste 0 1005.1 1.8 54
2019-11-13 20:00:00 17.9 2 Norte 9 Norte 0 1004.5 2.3 56
2019-11-13 19:00:00 19.9 5 Noroeste 25 Noroeste 0 1003.9 2.8 50
2019-11-13 18:00:00 21.4 13 Noroeste 27 Noroeste 0 1003.3 2.3 45
2019-11-13 17:00:00 22.5 16 Norte 40 Noroeste 0 1002.2 1.3 40
2019-11-13 16:00:00 23.6 24 Noroeste 51 Noroeste 0 1001.1 0.7 37
2019-11-13 15:00:00 23.4 23 Noroeste 50 Noroeste 0 1001 0.1 37
2019-11-13 14:00:00 24.3 24 Noroeste 57 Noroeste 0 1000.9 0.1 37
2019-11-13 13:00:00 24.1 19 Oeste 38 Noroeste 0 1000.4 -0.2 37
2019-11-13 12:00:00 23 11 Oeste 22 Noroeste 0 1000.9 0.9 41
2019-11-13 11:00:00 20.5 8 Oeste 12 Oeste 0 1000.8 0.9 44
2019-11-13 10:00:00 17.1 4 Sudoeste 6 Sudoeste 0 1000.6 0.8 52
2019-11-13 09:00:00 13 5 Sur 7 Sur 0 1000 -0.4 67
2019-11-13 08:00:00 10.8 3 Oeste 12 Sudoeste 0 999.9 -0.9 68
2019-11-13 07:00:00 11.2 4 Oeste 8 Sudoeste 0 999.8 -1.3 71
2019-11-13 06:00:00 12 3 Sudoeste 12 Noroeste 0 1000.4 -1.3 72
2019-11-13 05:00:00 11.7 3 Oeste 8 Este 0 1000.8 -1.9 63
2019-11-13 04:00:00 11.5 2 Norte 5 Noroeste 0 1001.1 -2.1 61
2019-11-13 03:00:00 12 3 Sudoeste 10 Sur 0 1001.7 -2.2 57
2019-11-13 02:00:00 12.4 6 Noroeste 9 Oeste 0 1002.7 -2 55
2019-11-13 01:00:00 12 4 Sudoeste 6 Sudeste 0 1003.2 -2 54
2019-11-13 00:00:00 11.7 4 Sur 10 Sudoeste 0 1003.9 -1.1 57
2019-11-12 23:00:00 11.4 4 Sudoeste 7 Sudoeste 0 1004.7 -0.2 53
2019-11-12 22:00:00 12.5 0 Calma 13 Oeste 0 1005.2 0.7 49
2019-11-12 21:00:00 14.2 6 Sudoeste 15 Noroeste 0 1005 0.8 43
2019-11-12 20:00:00 15.9 8 Oeste 28 Oeste 0 1004.9 0.8 38
2019-11-12 19:00:00 16.7 17 Oeste 28 Oeste 0 1004.5 0.2 36
2019-11-12 18:00:00 17.5 16 Oeste 30 Oeste 0 1004.2 -0.3 34
2019-11-12 17:00:00 18.7 12 Noroeste 32 Noroeste 0 1004.1 -0.9 32
2019-11-12 16:00:00 19.3 19 Noroeste 39 Oeste 0 1004.3 -1.2 31
2019-11-12 15:00:00 19.4 23 Noroeste 41 Noroeste 0 1004.5 -1.9 30
2019-11-12 14:00:00 19.4 17 Noroeste 36 Noroeste 0 1005 -2.1 30
2019-11-12 13:00:00 18.5 19 Noroeste 36 Noroeste 0 1005.5 -1.1 33
2019-11-12 12:00:00 17.2 22 Noroeste 41 Noroeste 0.4 1006.4 -0.1 34
2019-11-12 11:00:00 15.6 22 Noroeste 39 Noroeste 0 1007.1 0.8 37
2019-11-12 10:00:00 14.4 24 Noroeste 41 Noroeste 0 1006.6 0.5 40
2019-11-12 09:00:00 13.2 18 Noroeste 31 Noroeste 0 1006.5 0.4 43
2019-11-12 08:00:00 12.2 12 Noroeste 28 Noroeste 0 1006.3 0.1 44
2019-11-12 07:00:00 11.9 11 Noroeste 23 Oeste 0 1006.1 0.7 46
2019-11-12 06:00:00 11.6 11 Oeste 30 Noroeste 0 1006.1 0.2 48
2019-11-12 05:00:00 12.4 12 Noroeste 37 Noroeste 0 1006.2 0.2 47
2019-11-12 04:00:00 13 21 Noroeste 40 Noroeste 0 1005.4 -1 47
2019-11-12 03:00:00 13.5 21 Noroeste 37 Noroeste 0 1005.9 -1 48
2019-11-12 02:00:00 13.6 16 Noroeste 35 Noroeste 0 1006 -0.9 54
2019-11-12 01:00:00 14.4 18 Noroeste 35 Noroeste 0 1006.4 -0.5 54
2019-11-12 00:00:00 14.5 13 Noroeste 34 Noroeste 0 1006.9 0.6 54